Time;durP1;ratioP1;P1;durP2;ratioP2;P2;SDS_P1;SDS_P2;PMS_P1;PMS_P2;Temp;Humidity;BMP_temperature;BMP_pressure;BME280_temperature;BME280_humidity;BME280_pressure;Samples;Min_cycle;Max_cycle;Signal;HPM_P1;HPM_P2
2020/12/08 00:01:50;;;;;;;11.27;8.90;;;9.10;1.00;;;;;;5054160;28;20462;-73
2020/12/08 00:04:16;;;;;;;10.37;7.60;;;9.10;1.00;;;;;;5054349;28;20491;-56
2020/12/08 00:06:42;;;;;;;10.13;8.30;;;9.10;1.00;;;;;;5054520;28;20587;-73
2020/12/08 00:09:08;;;;;;;10.83;8.37;;;8.90;1.00;;;;;;5054488;28;20541;-73
2020/12/08 00:11:33;;;;;;;10.50;8.40;;;8.80;1.00;;;;;;5053500;28;20212;-56
2020/12/08 00:13:59;;;;;;;9.67;8.40;;;8.80;1.00;;;;;;5054297;28;20183;-74
2020/12/08 00:16:25;;;;;;;10.07;8.17;;;8.80;1.00;;;;;;5054525;28;20176;-73
2020/12/08 00:18:50;;;;;;;11.77;7.93;;;8.60;1.00;;;;;;5054327;28;20796;-73
2020/12/08 00:21:17;;;;;;;10.77;7.77;;;8.50;1.00;;;;;;5053578;28;20183;-73
2020/12/08 00:23:44;;;;;;;9.50;7.90;;;8.50;1.00;;;;;;5053803;28;20208;-56
2020/12/08 00:26:12;;;;;;;9.50;8.17;;;8.60;1.00;;;;;;5054305;28;20776;-74
2020/12/08 00:28:38;;;;;;;14.37;9.80;;;8.60;1.00;;;;;;5058933;28;20431;-56
2020/12/08 00:31:04;;;;;;;8.90;7.87;;;8.50;1.00;;;;;;5053907;28;20465;-56
2020/12/08 00:33:29;;;;;;;11.07;8.83;;;8.60;1.00;;;;;;5056094;28;20180;-72
2020/12/08 00:35:58;;;;;;;10.03;9.03;;;8.60;1.00;;;;;;5056935;28;20176;-72
2020/12/08 00:38:25;;;;;;;10.63;8.93;;;8.70;1.00;;;;;;5055185;28;20192;-74
2020/12/08 00:40:51;;;;;;;12.80;8.27;;;8.80;1.00;;;;;;5060409;28;20493;-74
2020/12/08 00:43:16;;;;;;;9.90;8.83;;;8.90;1.00;;;;;;5057264;28;20438;-73
2020/12/08 00:45:44;;;;;;;11.93;9.40;;;8.90;1.00;;;;;;5053915;28;20223;-72
2020/12/08 00:48:10;;;;;;;11.03;9.20;;;8.90;1.00;;;;;;5054853;28;20172;-73
2020/12/08 00:50:35;;;;;;;9.13;8.13;;;9.00;1.00;;;;;;5054019;28;20465;-56
2020/12/08 00:53:01;;;;;;;9.77;8.20;;;9.00;1.00;;;;;;5069599;28;20195;-73
2020/12/08 00:55:26;;;;;;;12.63;9.47;;;9.00;1.00;;;;;;5053678;28;20185;-74
2020/12/08 00:57:53;;;;;;;14.80;9.73;;;9.20;1.00;;;;;;5053675;28;20338;-57
2020/12/08 01:00:19;;;;;;;12.90;9.90;;;9.30;1.00;;;;;;5053363;28;20181;-72
2020/12/08 01:02:45;;;;;;;11.37;9.77;;;9.30;1.00;;;;;;5051950;28;20446;-73
2020/12/08 01:05:11;;;;;;;12.50;9.77;;;9.20;1.00;;;;;;5053947;28;20245;-56
2020/12/08 01:07:40;;;;;;;13.30;10.23;;;9.30;1.00;;;;;;5053800;28;20430;-72
2020/12/08 01:10:06;;;;;;;10.67;9.10;;;9.30;1.00;;;;;;5053754;28;20233;-56
2020/12/08 01:12:32;;;;;;;11.13;9.63;;;9.20;1.00;;;;;;5053279;28;21003;-73
2020/12/08 01:14:58;;;;;;;13.00;9.73;;;9.10;1.00;;;;;;5069198;28;20426;-56
2020/12/08 01:17:24;;;;;;;12.17;9.17;;;9.10;1.00;;;;;;5053711;28;20187;-56
2020/12/08 01:19:50;;;;;;;10.90;8.30;;;9.00;1.00;;;;;;5053437;28;20756;-56
2020/12/08 01:22:16;;;;;;;10.47;9.20;;;8.90;1.00;;;;;;5053683;28;20210;-57
2020/12/08 01:24:42;;;;;;;10.87;9.13;;;8.90;1.00;;;;;;5053395;28;20435;-55
2020/12/08 01:27:07;;;;;;;12.17;9.30;;;8.70;1.00;;;;;;5053572;28;20263;-73
2020/12/08 01:29:33;;;;;;;11.27;9.20;;;8.70;1.00;;;;;;5052800;28;20184;-73
2020/12/08 01:31:58;;;;;;;10.13;8.83;;;8.70;1.00;;;;;;5052924;28;20250;-72
2020/12/08 01:34:24;;;;;;;11.27;8.37;;;8.70;1.00;;;;;;5053479;28;20176;-56
2020/12/08 01:36:51;;;;;;;11.50;9.03;;;8.40;1.00;;;;;;5053174;28;20181;-73
2020/12/08 01:39:16;;;;;;;11.13;8.40;;;8.20;1.00;;;;;;5055683;28;20608;-73
2020/12/08 01:41:42;;;;;;;11.90;8.73;;;8.00;1.00;;;;;;5057206;28;20446;-73
2020/12/08 01:44:07;;;;;;;14.00;9.93;;;8.10;1.00;;;;;;5057308;28;20175;-73
2020/12/08 01:46:35;;;;;;;11.93;9.33;;;8.20;1.00;;;;;;5057069;28;20250;-56
2020/12/08 01:49:01;;;;;;;10.70;9.47;;;8.20;1.00;;;;;;5059704;28;20301;-73
2020/12/08 01:51:28;;;;;;;11.23;8.23;;;8.10;1.00;;;;;;5057674;28;21015;-72
2020/12/08 01:53:54;;;;;;;10.93;8.13;;;8.10;1.00;;;;;;5056804;28;20507;-56
2020/12/08 01:56:19;;;;;;;12.43;10.20;;;8.20;1.00;;;;;;5057006;28;20446;-56
2020/12/08 01:58:47;;;;;;;11.60;8.77;;;8.20;1.00;;;;;;5056731;28;20469;-73
2020/12/08 02:01:14;;;;;;;12.87;9.47;;;8.20;1.00;;;;;;5056328;28;20184;-73
2020/12/08 02:03:40;;;;;;;10.67;8.47;;;8.20;1.00;;;;;;5056762;28;20521;-55
2020/12/08 02:06:06;;;;;;;12.53;8.50;;;8.30;1.00;;;;;;5056612;28;20450;-55
2020/12/08 02:08:34;;;;;;;11.57;10.37;;;8.40;1.00;;;;;;5056416;28;20442;-73
2020/12/08 02:11:00;;;;;;;11.30;9.33;;;8.40;1.00;;;;;;5056329;28;20672;-72
2020/12/08 02:13:26;;;;;;;12.07;9.20;;;8.40;1.00;;;;;;5056916;28;20436;-73
2020/12/08 02:15:52;;;;;;;11.70;9.50;;;8.40;1.00;;;;;;5056726;28;20505;-56
2020/12/08 02:18:18;;;;;;;12.03;9.67;;;8.40;1.00;;;;;;5056801;28;20535;-74
2020/12/08 02:20:44;;;;;;;12.10;9.63;;;8.40;1.00;;;;;;5056615;28;20235;-56
2020/12/08 02:23:10;;;;;;;14.20;9.87;;;8.40;1.00;;;;;;5056900;28;20529;-74
2020/12/08 02:25:37;;;;;;;13.43;10.70;;;8.50;1.00;;;;;;5056591;28;20184;-73
2020/12/08 02:28:03;;;;;;;14.67;11.40;;;8.50;1.00;;;;;;5057635;28;20617;-73
2020/12/08 02:30:29;;;;;;;13.13;10.17;;;8.50;1.00;;;;;;5056792;28;20462;-72
2020/12/08 02:32:55;;;;;;;17.30;12.50;;;8.50;1.00;;;;;;5056439;28;20441;-74
2020/12/08 02:35:21;;;;;;;15.30;11.90;;;8.50;1.00;;;;;;5056538;28;20824;-72
2020/12/08 02:37:46;;;;;;;17.40;13.30;;;8.50;1.00;;;;;;5055382;28;20573;-72
2020/12/08 02:40:12;;;;;;;18.80;13.40;;;8.50;1.00;;;;;;5056484;28;20433;-72
2020/12/08 02:42:37;;;;;;;20.20;14.93;;;8.50;1.00;;;;;;5055980;28;20540;-56
2020/12/08 02:45:03;;;;;;;20.90;15.17;;;8.60;1.00;;;;;;5055814;28;20255;-56
2020/12/08 02:47:30;;;;;;;20.77;15.03;;;8.60;1.00;;;;;;5055910;28;20176;-56
2020/12/08 02:49:55;;;;;;;22.00;15.90;;;8.60;1.00;;;;;;5070943;28;20461;-56
2020/12/08 02:52:21;;;;;;;19.77;14.63;;;8.60;1.00;;;;;;5055862;28;20763;-56
2020/12/08 02:54:48;;;;;;;19.43;15.70;;;8.70;1.00;;;;;;5056085;28;20172;-56
2020/12/08 02:57:15;;;;;;;19.80;15.60;;;8.60;1.00;;;;;;5055697;28;20434;-56
2020/12/08 02:59:40;;;;;;;20.40;15.60;;;8.50;1.00;;;;;;5055424;28;20461;-55
2020/12/08 03:02:06;;;;;;;21.50;15.57;;;8.50;1.00;;;;;;5055337;28;20430;-72
2020/12/08 03:04:32;;;;;;;21.07;15.10;;;8.60;1.00;;;;;;5055422;28;20184;-72
2020/12/08 03:06:57;;;;;;;20.77;16.10;;;8.50;1.00;;;;;;5054952;28;20203;-56
2020/12/08 03:09:23;;;;;;;19.73;15.50;;;8.40;1.00;;;;;;5055412;28;20184;-56
2020/12/08 03:11:48;;;;;;;20.77;17.17;;;8.50;1.00;;;;;;5055611;28;20262;-56
2020/12/08 03:14:14;;;;;;;22.33;15.80;;;8.50;1.00;;;;;;5055688;28;20230;-73
2020/12/08 03:16:40;;;;;;;18.10;14.57;;;8.40;1.00;;;;;;5055615;28;20231;-56
2020/12/08 03:19:05;;;;;;;21.37;16.80;;;8.50;1.00;;;;;;5055414;28;20190;-72
2020/12/08 03:21:35;;;;;;;20.07;15.50;;;8.40;1.00;;;;;;5055290;28;20272;-56
2020/12/08 03:24:01;;;;;;;19.40;15.47;;;8.40;1.00;;;;;;5055217;28;20172;-56
2020/12/08 03:26:27;;;;;;;18.00;15.07;;;8.40;1.00;;;;;;5055149;28;20441;-72
2020/12/08 03:28:53;;;;;;;20.03;15.00;;;8.40;1.00;;;;;;5054681;28;20446;-73
2020/12/08 03:31:19;;;;;;;20.27;16.17;;;8.30;1.00;;;;;;5055070;28;20211;-72
2020/12/08 03:33:45;;;;;;;18.27;14.93;;;8.30;1.00;;;;;;5055507;28;20180;-72
2020/12/08 03:36:15;;;;;;;17.93;13.93;;;8.30;1.00;;;;;;5055049;28;20517;-56
2020/12/08 03:38:44;;;;;;;21.43;15.77;;;8.30;1.00;;;;;;5055064;28;20200;-72
2020/12/08 03:41:10;;;;;;;17.37;14.33;;;8.20;1.00;;;;;;5055105;28;20469;-56
2020/12/08 03:43:35;;;;;;;18.97;15.00;;;8.20;1.00;;;;;;5054988;28;20478;-56
2020/12/08 03:46:01;;;;;;;18.00;15.03;;;8.20;1.00;;;;;;5070561;28;20239;-74
2020/12/08 03:48:27;;;;;;;18.33;14.40;;;8.20;1.00;;;;;;5054913;28;20613;-73
2020/12/08 03:50:53;;;;;;;19.70;15.70;;;8.30;1.00;;;;;;5054625;28;20203;-74
2020/12/08 03:53:19;;;;;;;21.20;15.90;;;8.30;1.00;;;;;;5054567;28;20172;-57
2020/12/08 03:55:44;;;;;;;19.77;15.40;;;8.30;1.00;;;;;;5053395;28;20521;-73
2020/12/08 03:58:10;;;;;;;18.40;14.90;;;8.30;1.00;;;;;;5054708;28;20419;-75
2020/12/08 04:00:36;;;;;;;17.83;15.70;;;8.40;1.00;;;;;;5054163;28;20172;-56
2020/12/08 04:03:02;;;;;;;19.13;14.97;;;8.60;1.00;;;;;;5053827;28;20430;-74
2020/12/08 04:05:28;;;;;;;18.60;15.10;;;8.70;1.00;;;;;;5054686;28;20301;-73
2020/12/08 04:07:53;;;;;;;18.83;14.23;;;8.80;1.00;;;;;;5053552;28;20469;-56
2020/12/08 04:10:19;;;;;;;20.33;13.97;;;8.90;1.00;;;;;;5054534;28;20207;-56
2020/12/08 04:12:44;;;;;;;16.00;13.17;;;9.00;1.00;;;;;;5053893;28;20180;-73
2020/12/08 04:15:10;;;;;;;18.50;14.90;;;9.00;1.00;;;;;;5054575;28;20168;-56
2020/12/08 04:17:36;;;;;;;19.10;14.20;;;9.10;1.00;;;;;;5054189;28;20561;-73
2020/12/08 04:20:02;;;;;;;18.93;14.30;;;9.20;1.00;;;;;;5054164;28;20172;-74
2020/12/08 04:22:27;;;;;;;15.43;13.53;;;9.10;1.00;;;;;;5054464;28;20223;-74
2020/12/08 04:24:53;;;;;;;18.30;14.00;;;9.10;1.00;;;;;;5054434;28;20512;-74
2020/12/08 04:27:19;;;;;;;17.00;13.60;;;9.10;1.00;;;;;;5054517;28;20529;-56
2020/12/08 04:29:44;;;;;;;16.40;13.10;;;9.10;1.00;;;;;;5054677;28;20427;-74
2020/12/08 04:32:10;;;;;;;15.93;13.17;;;9.20;1.00;;;;;;5053590;28;20204;-74
2020/12/08 04:34:35;;;;;;;17.67;14.30;;;9.20;1.00;;;;;;5054397;28;20256;-74
2020/12/08 04:37:01;;;;;;;17.30;14.00;;;9.30;1.00;;;;;;5054203;28;20182;-74
2020/12/08 04:39:27;;;;;;;18.80;13.30;;;9.30;1.00;;;;;;5054246;28;20497;-74
2020/12/08 04:41:56;;;;;;;18.60;13.80;;;9.30;1.00;;;;;;5054258;28;20574;-73
2020/12/08 04:44:22;;;;;;;15.00;12.30;;;9.30;1.00;;;;;;5053146;28;20510;-72
2020/12/08 04:46:54;;;;;;;16.93;13.30;;;9.30;1.00;;;;;;5053028;28;21012;-56
2020/12/08 04:49:22;;;;;;;16.17;13.80;;;9.40;1.00;;;;;;5054139;28;20454;-73
2020/12/08 04:51:48;;;;;;;15.23;12.63;;;9.40;1.00;;;;;;5053562;28;20545;-72
2020/12/08 04:54:14;;;;;;;17.43;14.37;;;9.40;1.00;;;;;;5055009;28;20464;-73
2020/12/08 04:56:42;;;;;;;18.17;14.13;;;9.40;1.00;;;;;;5053211;28;20173;-56
2020/12/08 04:59:08;;;;;;;14.97;12.37;;;9.50;1.00;;;;;;5054068;28;20623;-74
2020/12/08 05:01:33;;;;;;;16.83;13.77;;;9.50;1.00;;;;;;5053606;28;20444;-59
2020/12/08 05:04:01;;;;;;;15.00;11.70;;;9.40;1.00;;;;;;5053996;28;20180;-58
2020/12/08 05:06:30;;;;;;;16.90;13.00;;;9.30;1.00;;;;;;5053919;28;20172;-60
2020/12/08 05:09:00;;;;;;;14.97;12.67;;;9.30;1.00;;;;;;5054585;28;20548;-76
2020/12/08 05:11:28;;;;;;;16.27;13.50;;;9.10;1.00;;;;;;5054667;28;20453;-60
2020/12/08 05:13:58;;;;;;;16.70;13.57;;;9.10;1.00;;;;;;5055796;28;20883;-59
2020/12/08 05:16:24;;;;;;;16.80;13.23;;;9.00;1.00;;;;;;5056250;28;20461;-59
2020/12/08 05:18:49;;;;;;;14.50;12.50;;;9.00;1.00;;;;;;5057864;28;20418;-58
2020/12/08 05:21:15;;;;;;;16.47;13.27;;;9.00;1.00;;;;;;5057225;28;20188;-58
2020/12/08 05:23:45;;;;;;;23.10;15.13;;;8.90;1.00;;;;;;5057545;28;20180;-56
2020/12/08 05:26:15;;;;;;;19.47;13.97;;;8.80;1.00;;;;;;5056934;28;20606;-56
2020/12/08 05:28:42;;;;;;;18.67;14.47;;;8.70;1.00;;;;;;5056648;28;20442;-57
2020/12/08 05:31:09;;;;;;;19.00;14.03;;;8.60;1.00;;;;;;5057350;28;20461;-69
2020/12/08 05:33:39;;;;;;;16.57;12.97;;;8.60;1.00;;;;;;5057593;28;20425;-55
2020/12/08 05:36:06;;;;;;;18.53;14.30;;;8.50;1.00;;;;;;5057590;28;20418;-55
2020/12/08 05:38:37;;;;;;;16.60;13.80;;;8.40;1.00;;;;;;5057480;28;20903;-68
2020/12/08 05:41:07;;;;;;;18.97;14.70;;;8.30;1.00;;;;;;5057448;28;20420;-68
2020/12/08 05:43:38;;;;;;;19.17;15.17;;;8.30;1.00;;;;;;5057108;28;20822;-70
2020/12/08 05:46:06;;;;;;;17.13;14.30;;;8.30;1.00;;;;;;5056429;28;20792;-55
2020/12/08 05:48:33;;;;;;;16.67;13.23;;;8.20;1.00;;;;;;5056689;28;20434;-68
2020/12/08 05:51:05;;;;;;;19.63;15.00;;;8.10;1.00;;;;;;5057121;28;20458;-68
2020/12/08 05:53:31;;;;;;;17.27;13.90;;;8.00;1.00;;;;;;5056895;28;20423;-55
2020/12/08 05:56:08;;;;;;;21.90;16.00;;;8.00;1.00;;;;;;5057101;28;20422;-55
2020/12/08 05:58:35;;;;;;;18.70;14.20;;;8.00;1.00;;;;;;5057063;28;20179;-69
2020/12/08 06:01:07;;;;;;;20.10;15.37;;;8.00;1.00;;;;;;5056276;28;20449;-55
2020/12/08 06:03:34;;;;;;;18.17;14.00;;;8.00;1.00;;;;;;5056322;28;20442;-69
2020/12/08 06:06:10;;;;;;;23.03;20.17;;;7.90;1.00;;;;;;5056510;28;20523;-57
2020/12/08 06:08:46;;;;;;;19.67;15.00;;;7.90;1.00;;;;;;5056512;28;20447;-57
2020/12/08 06:11:12;;;;;;;21.50;15.33;;;7.80;1.00;;;;;;5055935;28;20485;-73
2020/12/08 06:13:56;;;;;;;16.60;14.20;;;7.80;1.00;;;;;;5056637;28;20427;-71
2020/12/08 06:16:23;;;;;;;21.00;14.10;;;7.90;1.00;;;;;;5056816;28;20406;-56
2020/12/08 06:18:50;;;;;;;18.13;13.90;;;7.90;1.00;;;;;;5055368;28;20482;-56
2020/12/08 06:21:22;;;;;;;19.20;15.20;;;7.90;1.00;;;;;;5055399;28;20584;-70
2020/12/08 06:23:50;;;;;;;18.50;14.30;;;7.90;1.00;;;;;;5036672;28;20495;-70
2020/12/08 06:26:27;;;;;;;17.40;13.63;;;7.80;1.00;;;;;;5035623;28;20466;-70
2020/12/08 06:28:54;;;;;;;18.90;14.70;;;7.80;1.00;;;;;;5048423;28;20938;-70
2020/12/08 06:31:19;;;;;;;16.63;13.60;;;7.80;1.00;;;;;;5056241;28;20458;-70
2020/12/08 06:33:56;;;;;;;20.90;14.80;;;7.90;1.00;;;;;;5055390;28;20515;-55
2020/12/08 06:36:27;;;;;;;17.27;13.60;;;8.00;1.00;;;;;;5055751;28;20264;-65
2020/12/08 06:39:07;;;;;;;19.20;14.00;;;8.00;1.00;;;;;;5055756;28;20438;-55
2020/12/08 06:41:37;;;;;;;20.33;13.03;;;8.00;1.00;;;;;;5056234;28;20426;-56
2020/12/08 06:44:19;;;;;;;20.17;14.43;;;7.90;1.00;;;;;;5055676;28;20525;-64
2020/12/08 06:46:57;;;;;;;17.40;14.43;;;7.80;1.00;;;;;;5036313;28;20520;-64
2020/12/08 06:49:22;;;;;;;17.10;13.07;;;7.80;1.00;;;;;;5036073;28;20412;-55
2020/12/08 06:51:57;;;;;;;27.93;15.07;;;7.80;1.00;;;;;;5035994;28;20521;-55
2020/12/08 06:54:23;;;;;;;17.53;13.60;;;7.70;1.00;;;;;;5045175;28;20233;-63
2020/12/08 06:56:49;;;;;;;17.87;13.73;;;7.70;1.00;;;;;;5056035;28;20422;-64
2020/12/08 06:59:24;;;;;;;16.60;14.13;;;7.70;1.00;;;;;;5055102;28;20414;-62
2020/12/08 07:01:51;;;;;;;16.53;13.30;;;7.70;1.00;;;;;;5055156;28;20538;-63
2020/12/08 07:04:18;;;;;;;17.10;14.83;;;7.70;1.00;;;;;;5055342;28;20451;-55
2020/12/08 07:06:45;;;;;;;18.83;13.90;;;7.70;1.00;;;;;;5054987;28;20819;-56
2020/12/08 07:09:11;;;;;;;17.70;13.17;;;7.70;1.00;;;;;;5055601;28;20431;-55
2020/12/08 07:11:36;;;;;;;23.77;15.30;;;7.70;1.00;;;;;;5054891;28;20462;-54
2020/12/08 07:14:06;;;;;;;15.87;13.47;;;7.70;1.00;;;;;;5055293;28;20423;-54
2020/12/08 07:16:36;;;;;;;16.03;12.83;;;7.70;1.00;;;;;;5055440;28;20255;-55
2020/12/08 07:19:04;;;;;;;16.73;13.00;;;7.60;1.00;;;;;;5054596;28;20430;-63
2020/12/08 07:21:29;;;;;;;18.80;13.70;;;7.60;1.00;;;;;;5055225;28;20423;-64
2020/12/08 07:23:55;;;;;;;20.80;15.13;;;7.70;1.00;;;;;;5053849;28;20434;-65
2020/12/08 07:26:24;;;;;;;14.77;13.13;;;7.70;1.00;;;;;;5052396;28;20199;-62
2020/12/08 07:28:50;;;;;;;16.70;12.67;;;7.70;1.00;;;;;;5040671;28;20434;-55
2020/12/08 07:31:24;;;;;;;16.27;12.67;;;7.70;1.00;;;;;;5055111;28;20524;-55
2020/12/08 07:33:51;;;;;;;14.47;11.13;;;7.70;1.00;;;;;;5055196;28;20410;-55
2020/12/08 07:36:38;;;;;;;18.87;12.00;;;7.70;1.00;;;;;;5053807;28;20443;-55
2020/12/08 07:39:04;;;;;;;15.23;12.00;;;7.80;1.00;;;;;;5055076;28;20458;-54
2020/12/08 07:41:31;;;;;;;15.17;12.73;;;7.80;1.00;;;;;;5054939;28;20474;-55
2020/12/08 07:43:58;;;;;;;15.37;12.67;;;7.80;1.00;;;;;;5055107;28;20207;-54
2020/12/08 07:46:31;;;;;;;17.23;11.83;;;7.70;1.00;;;;;;5054762;28;20470;-56
2020/12/08 07:49:01;;;;;;;14.77;11.17;;;7.80;1.00;;;;;;5054087;28;20438;-58
2020/12/08 07:51:28;;;;;;;20.13;12.90;;;7.80;1.00;;;;;;5054843;28;20545;-54
2020/12/08 07:53:54;;;;;;;15.77;12.73;;;7.80;1.00;;;;;;5055158;28;20790;-55
2020/12/08 07:56:27;;;;;;;16.53;13.63;;;7.90;1.00;;;;;;5054566;28;20490;-55
2020/12/08 07:58:53;;;;;;;16.53;11.77;;;7.80;1.00;;;;;;5051647;28;20176;-55
2020/12/08 08:01:19;;;;;;;17.93;11.80;;;7.90;1.00;;;;;;5052485;28;20449;-55
2020/12/08 08:03:45;;;;;;;13.53;11.30;;;8.00;1.00;;;;;;5054622;28;20743;-55
2020/12/08 08:06:14;;;;;;;17.90;13.30;;;8.00;1.00;;;;;;5054550;28;20434;-55
2020/12/08 08:08:40;;;;;;;16.00;13.53;;;8.10;1.00;;;;;;5054394;28;20191;-55
2020/12/08 08:11:06;;;;;;;14.97;12.03;;;8.00;1.00;;;;;;5054666;28;20462;-55
2020/12/08 08:13:31;;;;;;;14.43;11.63;;;8.10;1.00;;;;;;5054457;28;20426;-64
2020/12/08 08:15:57;;;;;;;15.47;12.50;;;8.00;1.00;;;;;;5054391;28;20609;-63
2020/12/08 08:18:23;;;;;;;18.03;12.60;;;8.00;1.00;;;;;;5054071;28;20184;-55
2020/12/08 08:20:48;;;;;;;16.17;11.73;;;8.00;1.00;;;;;;5054154;28;20620;-55
2020/12/08 08:23:14;;;;;;;15.00;11.13;;;8.10;1.00;;;;;;5069750;28;20184;-55
2020/12/08 08:25:39;;;;;;;17.00;11.90;;;8.10;1.00;;;;;;5053290;28;20600;-54
2020/12/08 08:28:05;;;;;;;14.10;11.60;;;8.10;1.00;;;;;;5053346;28;20191;-54
2020/12/08 08:30:30;;;;;;;15.43;11.20;;;8.20;1.00;;;;;;5053825;28;20552;-54
2020/12/08 08:32:56;;;;;;;15.50;13.00;;;8.20;1.00;;;;;;5054110;28;20251;-63
2020/12/08 08:35:22;;;;;;;14.47;11.57;;;8.30;1.00;;;;;;5054108;28;20168;-55
2020/12/08 08:37:47;;;;;;;17.30;11.00;;;8.30;1.00;;;;;;5053855;28;20244;-63
2020/12/08 08:40:13;;;;;;;17.20;12.47;;;8.30;1.00;;;;;;5053079;28;20257;-54
2020/12/08 08:42:39;;;;;;;14.50;10.33;;;8.40;1.00;;;;;;5053889;28;20483;-55
2020/12/08 08:45:04;;;;;;;15.67;10.97;;;8.40;1.00;;;;;;5053693;28;20516;-64
2020/12/08 08:47:30;;;;;;;13.83;11.67;;;8.40;1.00;;;;;;5053594;28;20267;-63
2020/12/08 08:49:55;;;;;;;14.47;11.40;;;8.40;1.00;;;;;;5053715;28;20194;-64
2020/12/08 08:52:21;;;;;;;15.70;11.57;;;8.50;1.00;;;;;;5053725;28;20220;-63
2020/12/08 08:54:47;;;;;;;14.90;11.40;;;8.50;1.00;;;;;;5053923;28;20471;-63
2020/12/08 08:57:12;;;;;;;13.53;11.17;;;8.50;1.00;;;;;;5053033;28;20184;-62
2020/12/08 08:59:38;;;;;;;14.50;11.80;;;8.50;1.00;;;;;;5053698;28;20184;-54
2020/12/08 09:02:03;;;;;;;12.80;10.50;;;8.60;1.00;;;;;;5053591;28;20183;-54
2020/12/08 09:04:29;;;;;;;12.27;9.60;;;8.50;1.00;;;;;;5053810;28;20177;-55
2020/12/08 09:06:55;;;;;;;16.00;11.60;;;8.70;1.00;;;;;;5053692;28;20207;-63
2020/12/08 09:09:20;;;;;;;14.37;10.40;;;8.70;1.00;;;;;;5053762;28;20271;-54
2020/12/08 09:11:46;;;;;;;13.77;10.83;;;8.70;1.00;;;;;;5053521;28;20210;-54
2020/12/08 09:14:11;;;;;;;15.97;11.00;;;8.80;1.00;;;;;;5053510;28;20180;-55
2020/12/08 09:16:39;;;;;;;12.83;10.50;;;8.90;1.00;;;;;;5053808;28;20176;-62
2020/12/08 09:19:05;;;;;;;13.77;10.10;;;9.00;1.00;;;;;;5053646;28;20176;-55
2020/12/08 09:21:30;;;;;;;14.23;10.20;;;9.00;1.00;;;;;;5053686;28;20884;-63
2020/12/08 09:23:56;;;;;;;14.03;10.17;;;9.00;1.00;;;;;;5053294;28;20199;-63
2020/12/08 09:26:21;;;;;;;12.83;10.10;;;9.10;1.00;;;;;;5053606;28;20210;-55
2020/12/08 09:28:47;;;;;;;14.30;9.87;;;9.20;1.00;;;;;;5053441;28;20180;-54
2020/12/08 09:31:15;;;;;;;16.57;10.30;;;9.20;1.00;;;;;;5053471;28;20196;-63
2020/12/08 09:33:40;;;;;;;12.43;10.53;;;9.20;1.00;;;;;;5053483;28;20246;-55
2020/12/08 09:36:06;;;;;;;13.20;9.50;;;9.30;1.00;;;;;;5053484;28;20780;-55
2020/12/08 09:38:32;;;;;;;14.47;9.53;;;9.40;1.00;;;;;;5053465;28;20310;-54
2020/12/08 09:40:57;;;;;;;14.37;11.07;;;9.40;1.00;;;;;;5053477;28;20180;-54
2020/12/08 09:43:23;;;;;;;13.60;9.70;;;9.40;1.00;;;;;;5053473;28;20180;-53
2020/12/08 09:45:48;;;;;;;10.40;9.27;;;9.50;1.00;;;;;;5052607;28;20224;-54
2020/12/08 09:48:14;;;;;;;10.87;9.00;;;9.40;1.00;;;;;;5053374;28;20199;-54
2020/12/08 09:50:40;;;;;;;13.77;9.90;;;9.50;1.00;;;;;;5053298;28;20279;-54
2020/12/08 09:53:05;;;;;;;12.20;9.90;;;9.50;1.00;;;;;;5053303;28;20187;-63
2020/12/08 09:55:31;;;;;;;10.87;9.13;;;9.60;1.00;;;;;;5053337;28;20173;-64
2020/12/08 09:57:56;;;;;;;18.87;11.17;;;9.80;1.00;;;;;;5053334;28;20338;-63
2020/12/08 10:00:22;;;;;;;10.30;8.27;;;9.90;1.00;;;;;;5054257;28;20175;-63
2020/12/08 10:02:48;;;;;;;11.60;9.80;;;10.00;1.00;;;;;;5056950;28;20177;-55
2020/12/08 10:05:13;;;;;;;10.20;8.50;;;10.00;1.00;;;;;;5056752;28;20180;-63
2020/12/08 10:07:39;;;;;;;14.07;9.43;;;9.90;1.00;;;;;;5056652;28;20183;-63
2020/12/08 10:10:06;;;;;;;11.67;9.40;;;9.90;1.00;;;;;;5056639;28;20189;-54
2020/12/08 10:12:32;;;;;;;11.77;9.33;;;9.80;1.00;;;;;;5056568;28;20173;-63
2020/12/08 10:14:57;;;;;;;12.83;9.03;;;9.90;1.00;;;;;;5055966;28;20438;-64
2020/12/08 10:17:23;;;;;;;12.23;8.87;;;9.80;1.00;;;;;;5056583;28;20605;-55
2020/12/08 10:19:48;;;;;;;19.50;9.67;;;9.90;1.00;;;;;;5056442;28;20175;-64
2020/12/08 10:22:14;;;;;;;13.20;8.93;;;9.90;1.00;;;;;;5056397;28;20237;-64
2020/12/08 10:24:40;;;;;;;11.37;8.60;;;10.00;1.00;;;;;;5056140;28;20172;-55
2020/12/08 10:27:06;;;;;;;11.77;9.00;;;9.90;1.00;;;;;;5056327;28;20176;-55
2020/12/08 10:29:32;;;;;;;10.70;8.77;;;10.00;1.00;;;;;;5056288;28;20548;-54
2020/12/08 10:31:58;;;;;;;10.10;8.90;;;9.90;1.00;;;;;;5056088;28;20458;-54
2020/12/08 10:34:24;;;;;;;12.33;8.40;;;9.90;1.00;;;;;;5056029;28;20437;-54
2020/12/08 10:36:50;;;;;;;10.30;8.80;;;9.80;1.00;;;;;;5056161;28;20536;-63
2020/12/08 10:39:15;;;;;;;8.63;7.70;;;9.70;1.00;;;;;;5056071;28;20215;-63
2020/12/08 10:41:41;;;;;;;11.93;8.40;;;9.70;1.00;;;;;;5055517;28;20195;-54
2020/12/08 10:44:07;;;;;;;10.90;8.50;;;9.70;1.00;;;;;;5055097;28;20637;-64
2020/12/08 10:46:34;;;;;;;11.63;8.93;;;9.80;1.00;;;;;;5055881;28;20550;-54
2020/12/08 10:49:00;;;;;;;9.70;7.73;;;9.80;1.00;;;;;;5056005;28;20415;-54
2020/12/08 10:51:25;;;;;;;10.27;7.80;;;9.90;1.00;;;;;;5055831;28;20465;-63
2020/12/08 10:53:51;;;;;;;12.00;8.33;;;9.80;1.00;;;;;;5055884;28;20183;-63
2020/12/08 10:56:21;;;;;;;12.67;9.00;;;9.90;1.00;;;;;;5055990;28;20278;-64
2020/12/08 10:58:47;;;;;;;12.40;8.80;;;9.90;1.00;;;;;;5055709;28;20426;-63
2020/12/08 11:01:20;;;;;;;10.47;8.80;;;9.90;1.00;;;;;;5055690;28;20880;-64
2020/12/08 11:03:46;;;;;;;10.10;8.90;;;10.00;1.00;;;;;;5055764;28;20453;-56
2020/12/08 11:06:19;;;;;;;9.83;8.20;;;10.00;1.00;;;;;;5055512;28;20419;-65
2020/12/08 11:08:44;;;;;;;12.37;8.70;;;9.90;1.00;;;;;;5055644;28;20410;-55
2020/12/08 11:11:10;;;;;;;11.20;8.00;;;10.00;1.00;;;;;;5054678;28;20911;-65
2020/12/08 11:13:35;;;;;;;15.23;8.33;;;10.10;1.00;;;;;;5055138;28;20309;-65
2020/12/08 11:16:03;;;;;;;11.73;8.57;;;10.10;1.00;;;;;;5055360;28;20554;-65
2020/12/08 11:18:29;;;;;;;12.63;8.73;;;10.10;1.00;;;;;;5054161;28;20208;-56
2020/12/08 11:20:54;;;;;;;13.70;8.03;;;10.20;1.00;;;;;;5055280;28;20419;-55
2020/12/08 11:23:20;;;;;;;9.87;8.00;;;10.30;1.00;;;;;;5055225;28;20237;-55
2020/12/08 11:25:46;;;;;;;10.47;7.80;;;10.30;1.00;;;;;;5055186;28;20169;-65
2020/12/08 11:28:11;;;;;;;10.50;8.53;;;10.30;1.00;;;;;;5054846;28;20514;-65
2020/12/08 11:30:37;;;;;;;12.70;8.43;;;10.30;1.00;;;;;;5054847;28;20283;-65
2020/12/08 11:33:02;;;;;;;10.40;8.33;;;10.30;1.00;;;;;;5054819;28;20176;-56
2020/12/08 11:35:28;;;;;;;10.20;8.27;;;10.40;1.00;;;;;;5054924;28;20171;-65
2020/12/08 11:37:54;;;;;;;10.50;8.47;;;10.40;1.00;;;;;;5054916;28;20180;-63
2020/12/08 11:40:19;;;;;;;10.20;8.30;;;10.40;1.00;;;;;;5054873;28;20172;-54
2020/12/08 11:42:45;;;;;;;12.27;9.63;;;10.90;1.00;;;;;;5054961;28;20251;-56
2020/12/08 11:45:12;;;;;;;9.40;8.40;;;10.40;1.00;;;;;;5054614;28;20230;-64
2020/12/08 11:47:39;;;;;;;9.63;8.63;;;10.40;1.00;;;;;;5054441;28;20188;-65
2020/12/08 11:50:05;;;;;;;10.07;8.40;;;10.40;1.00;;;;;;5054197;28;20430;-64
2020/12/08 11:52:31;;;;;;;10.20;8.43;;;10.40;1.00;;;;;;5054685;28;20573;-64
2020/12/08 11:54:56;;;;;;;9.73;8.73;;;10.40;1.00;;;;;;5054789;28;20506;-64
2020/12/08 11:57:22;;;;;;;11.27;9.20;;;10.40;1.00;;;;;;5054653;28;20614;-65
2020/12/08 11:59:48;;;;;;;10.43;8.83;;;10.30;1.00;;;;;;5053572;28;20241;-65
2020/12/08 12:02:13;;;;;;;8.27;7.37;;;10.40;1.00;;;;;;5054498;28;20203;-64
2020/12/08 12:04:39;;;;;;;14.93;9.87;;;10.40;1.00;;;;;;5054395;28;20628;-65
2020/12/08 12:07:04;;;;;;;11.60;9.07;;;10.30;1.00;;;;;;5054354;28;20259;-63
2020/12/08 12:09:30;;;;;;;13.20;9.20;;;10.30;1.00;;;;;;5054351;28;20181;-55
2020/12/08 12:11:55;;;;;;;12.73;8.93;;;10.20;1.00;;;;;;5054214;28;20595;-64
2020/12/08 12:14:21;;;;;;;11.80;7.50;;;10.30;1.00;;;;;;5054236;28;20233;-65
2020/12/08 12:16:47;;;;;;;9.57;8.40;;;10.30;1.00;;;;;;5053736;28;20175;-57
2020/12/08 12:19:12;;;;;;;11.27;8.60;;;10.20;1.00;;;;;;5054205;28;20194;-58
2020/12/08 12:21:38;;;;;;;10.90;9.23;;;10.30;1.00;;;;;;5054191;28;20164;-56
2020/12/08 12:24:04;;;;;;;10.63;8.73;;;10.30;1.00;;;;;;5068608;28;20195;-64
2020/12/08 12:26:29;;;;;;;9.53;8.00;;;10.30;1.00;;;;;;5054128;28;20187;-65
2020/12/08 12:28:55;;;;;;;11.80;8.03;;;10.20;1.00;;;;;;5054046;28;20172;-55
2020/12/08 12:31:20;;;;;;;11.40;8.60;;;10.20;1.00;;;;;;5053970;28;20189;-55
2020/12/08 12:33:46;;;;;;;12.33;8.93;;;10.10;1.00;;;;;;5053917;28;20502;-55
2020/12/08 12:36:12;;;;;;;11.77;8.47;;;10.00;1.00;;;;;;5054019;28;20179;-55
2020/12/08 12:38:38;;;;;;;13.37;8.23;;;10.00;1.00;;;;;;5053917;28;20419;-64
2020/12/08 12:41:03;;;;;;;10.30;8.50;;;10.00;1.00;;;;;;5053933;28;20529;-65
2020/12/08 12:43:29;;;;;;;11.40;8.73;;;10.00;1.00;;;;;;5053849;28;20194;-63
2020/12/08 12:45:55;;;;;;;9.03;7.23;;;10.00;1.00;;;;;;5069231;28;20230;-64
2020/12/08 12:48:20;;;;;;;11.83;8.67;;;10.00;1.00;;;;;;5053492;28;20182;-64